WXM80 ListenWXM80 Stop

You find our weather info also at:

UK Metoffice

WeatherCloud

Weather Underground

Northeastern Weather Network

AWEKAS

Citizen Weather Observer Program (CWOP)

HAMweather, WeatherForYou, PWS Weather


Weather Underground History page Text

Daily Summary for April 10, 2017 Units:  English    Metric   Both
« Previous Day
Next Day »
Daily Weekly Monthly Yearly Custom
  High: Low: Average:
Temperature: 73.9 °F 45.4 °F 58.8 °F
Dew Point: 50.7 °F 34.5 °F 43.2 °F
Humidity: 74 % 41 % 57 %
Wind Speed: 10.5 mph 0.0 mph 4.1 mph
Wind Gust: 18.4 mph - -
Wind:- - South
Pressure: 30.19 in 30.05 in -
Precipitation: 0.00 in    
Historical Graphs
 
 
Tabular Data for April 10, 2017
Time Temperature Dew Point Pressure Wind Wind Speed Wind Gust Humidity Rainfall Rate (Hourly)
00:03 50.5 °F 35.4 °F 30.14 in SSW 5.2 mph 8.1 mph 56 % 0.00 in
00:08 50.6 °F 35.5 °F 30.14 in SW 2.3 mph 5.8 mph 56 % 0.00 in
00:13 50.7 °F 35.6 °F 30.13 in SW 5.5 mph 9.0 mph 56 % 0.00 in
00:18 50.9 °F 35.3 °F 30.14 in SW 7.2 mph 9.2 mph 55 % 0.00 in
00:23 51.0 °F 34.9 °F 30.14 in WSW 5.9 mph 10.4 mph 54 % 0.00 in
00:28 51.1 °F 35.0 °F 30.14 in SW 6.0 mph 8.1 mph 54 % 0.00 in
00:33 51.3 °F 34.7 °F 30.14 in WSW 7.1 mph 11.5 mph 53 % 0.00 in
00:38 51.4 °F 34.8 °F 30.14 in SW 5.7 mph 5.8 mph 53 % 0.00 in
00:43 51.5 °F 34.9 °F 30.14 in SW 4.7 mph 6.9 mph 53 % 0.00 in
00:48 51.5 °F 34.9 °F 30.14 in SW 3.9 mph 5.8 mph 53 % 0.00 in
00:53 51.5 °F 34.9 °F 30.14 in SW 3.7 mph 6.9 mph 53 % 0.00 in
00:58 51.4 °F 34.8 °F 30.14 in WSW 3.7 mph 5.8 mph 53 % 0.00 in
01:03 51.4 °F 34.8 °F 30.14 in WSW 3.7 mph 5.8 mph 53 % 0.00 in
01:08 51.3 °F 34.7 °F 30.14 in SW 5.4 mph 10.0 mph 53 % 0.00 in
01:10 51.3 °F 34.7 °F 30.14 in SW 4.5 mph 10.4 mph 53 % 0.00 in
01:15 51.2 °F 35.1 °F 30.14 in WSW 4.6 mph 10.0 mph 54 % 0.00 in
01:20 51.1 °F 34.5 °F 30.14 in WSW 4.4 mph 7.0 mph 53 % 0.00 in
01:25 51.0 °F 34.9 °F 30.14 in SW 7.0 mph 11.5 mph 54 % 0.00 in
01:30 51.0 °F 34.9 °F 30.14 in WSW 7.6 mph 11.5 mph 54 % 0.00 in
01:35 50.9 °F 35.3 °F 30.14 in WSW 6.3 mph 10.4 mph 55 % 0.00 in
01:41 50.9 °F 35.3 °F 30.14 in SW 6.4 mph 11.5 mph 55 % 0.00 in
01:46 50.8 °F 35.2 °F 30.14 in SSW 5.4 mph 7.0 mph 55 % 0.00 in
01:51 50.7 °F 35.6 °F 30.14 in SSW 5.2 mph 7.0 mph 56 % 0.00 in
01:56 50.5 °F 35.4 °F 30.14 in WSW 4.6 mph 8.0 mph 56 % 0.00 in
02:01 50.4 °F 35.3 °F 30.14 in SW 4.3 mph 7.0 mph 56 % 0.00 in
02:06 50.1 °F 35.4 °F 30.14 in WSW 4.4 mph 8.1 mph 57 % 0.00 in
02:11 50.0 °F 35.4 °F 30.14 in SW 4.0 mph 8.1 mph 57 % 0.00 in
02:16 49.9 °F 35.7 °F 30.14 in SW 2.9 mph 4.0 mph 58 % 0.00 in
02:21 49.8 °F 35.6 °F 30.14 in WSW 2.2 mph 3.5 mph 58 % 0.00 in
02:26 49.7 °F 35.5 °F 30.14 in SW 2.9 mph 4.6 mph 58 % 0.00 in
02:31 49.6 °F 35.8 °F 30.14 in SW 1.1 mph 3.5 mph 59 % 0.00 in
02:36 49.5 °F 35.8 °F 30.14 in SW 0.2 mph 1.2 mph 59 % 0.00 in
02:41 49.3 °F 35.6 °F 30.14 in SW 1.1 mph 2.3 mph 59 % 0.00 in
02:46 49.1 °F 35.4 °F 30.14 in Calm   1.2 mph 59 % 0.00 in
02:51 49.0 °F 35.7 °F 30.14 in SW 0.4 mph 1.2 mph 60 % 0.00 in
02:56 48.8 °F 35.9 °F 30.14 in SW 1.5 mph 3.5 mph 61 % 0.00 in
03:01 48.4 °F 36.0 °F 30.14 in SW 1.1 mph 2.3 mph 62 % 0.00 in
03:06 48.1 °F 36.1 °F 30.15 in SSW 0.7 mph 3.5 mph 63 % 0.00 in
03:11 47.9 °F 36.3 °F 30.15 in SSW 0.1 mph 2.3 mph 64 % 0.00 in
03:16 47.9 °F 36.3 °F 30.15 in SSW 1.2 mph 3.5 mph 64 % 0.00 in
03:21 47.8 °F 36.6 °F 30.15 in Calm   1.2 mph 65 % 0.00 in
03:26 47.7 °F 36.5 °F 30.15 in Calm   2.3 mph 65 % 0.00 in
03:31 47.5 °F 36.3 °F 30.15 in SSW 0.4 mph 1.2 mph 65 % 0.00 in
03:36 47.4 °F 36.6 °F 30.15 in Calm   1.2 mph 66 % 0.00 in
03:38 47.3 °F 36.5 °F 30.15 in SSW 1.8 mph 4.0 mph 66 % 0.00 in
03:43 47.2 °F 36.8 °F 30.15 in SW 3.2 mph 6.0 mph 67 % 0.00 in
03:48 47.0 °F 36.6 °F 30.15 in SW 0.9 mph 3.5 mph 67 % 0.00 in
03:53 46.9 °F 36.9 °F 30.15 in SSW 2.7 mph 3.5 mph 68 % 0.00 in
03:58 46.9 °F 36.9 °F 30.16 in SW 2.1 mph 3.5 mph 68 % 0.00 in
04:03 46.8 °F 36.8 °F 30.16 in SSW 2.0 mph 4.6 mph 68 % 0.00 in
04:08 46.8 °F 37.2 °F 30.16 in SSW 0.7 mph 2.3 mph 69 % 0.00 in
04:14 46.9 °F 37.3 °F 30.15 in SSW 1.0 mph 3.5 mph 69 % 0.00 in
04:19 46.8 °F 37.2 °F 30.16 in SSW 1.3 mph 2.3 mph 69 % 0.00 in
04:24 46.8 °F 37.5 °F 30.16 in SSW 1.9 mph 3.5 mph 70 % 0.00 in
04:29 46.8 °F 37.5 °F 30.16 in SSW 2.5 mph 3.5 mph 70 % 0.00 in
04:34 46.7 °F 37.8 °F 30.16 in SSW 1.2 mph 3.5 mph 71 % 0.00 in
04:39 46.7 °F 37.8 °F 30.16 in SSW 2.1 mph 4.0 mph 71 % 0.00 in
04:44 46.6 °F 37.7 °F 30.16 in SSW 2.1 mph 4.0 mph 71 % 0.00 in
04:49 46.5 °F 38.0 °F 30.17 in SSW 2.9 mph 3.5 mph 72 % 0.00 in
04:54 46.5 °F 38.0 °F 30.17 in South 2.5 mph 3.5 mph 72 % 0.00 in
04:59 46.5 °F 38.0 °F 30.17 in South 1.8 mph 3.5 mph 72 % 0.00 in
05:04 46.4 °F 37.9 °F 30.17 in South 1.5 mph 3.5 mph 72 % 0.00 in
05:09 46.4 °F 37.9 °F 30.17 in South 1.2 mph 2.3 mph 72 % 0.00 in
05:14 46.3 °F 38.1 °F 30.17 in South 1.0 mph 3.5 mph 73 % 0.00 in
05:19 46.2 °F 37.7 °F 30.17 in South 1.2 mph 2.3 mph 72 % 0.00 in
05:24 46.1 °F 37.6 °F 30.16 in South 0.8 mph 2.0 mph 72 % 0.00 in
05:29 46.0 °F 37.5 °F 30.16 in South 0.9 mph 2.3 mph 72 % 0.00 in
05:34 45.8 °F 37.6 °F 30.16 in South 0.6 mph 2.3 mph 73 % 0.00 in
05:35 45.9 °F 37.7 °F 30.16 in South 1.2 mph 2.3 mph 73 % 0.00 in
05:40 45.8 °F 37.6 °F 30.16 in South 1.7 mph 3.5 mph 73 % 0.00 in
05:45 45.6 °F 37.4 °F 30.17 in South 1.2 mph 3.5 mph 73 % 0.00 in
05:50 45.5 °F 37.7 °F 30.16 in South 2.5 mph 3.5 mph 74 % 0.00 in
05:55 45.4 °F 37.6 °F 30.17 in SSW 3.2 mph 3.5 mph 74 % 0.00 in
06:00 45.4 °F 37.6 °F 30.17 in SSW 1.9 mph 3.5 mph 74 % 0.00 in
06:05 45.4 °F 37.6 °F 30.17 in SSW 1.1 mph 3.0 mph 74 % 0.00 in
06:10 45.4 °F 37.6 °F 30.17 in SSW 2.3 mph 3.5 mph 74 % 0.00 in
06:15 45.5 °F 37.7 °F 30.17 in SSW 0.5 mph 2.0 mph 74 % 0.00 in
06:20 45.6 °F 37.4 °F 30.18 in SW 1.3 mph 3.0 mph 73 % 0.00 in
06:25 45.7 °F 37.5 °F 30.17 in SSW 1.2 mph 3.5 mph 73 % 0.00 in
06:30 45.9 °F 37.7 °F 30.18 in SW 3.0 mph 4.6 mph 73 % 0.00 in
06:35 46.0 °F 37.5 °F 30.18 in SSW 2.0 mph 3.5 mph 72 % 0.00 in
06:40 46.2 °F 37.7 °F 30.18 in SW 4.3 mph 6.9 mph 72 % 0.00 in
06:45 46.5 °F 38.0 °F 30.18 in SSW 3.2 mph 5.0 mph 72 % 0.00 in
06:50 46.9 °F 38.0 °F 30.18 in SW 4.7 mph 4.7 mph 71 % 0.00 in
06:52 47.1 °F 38.2 °F 30.18 in WSW 3.2 mph 5.8 mph 71 % 0.00 in
06:57 47.6 °F 38.3 °F 30.18 in SW 3.7 mph 5.8 mph 70 % 0.00 in
07:02 48.0 °F 38.7 °F 30.19 in SW 3.6 mph 4.0 mph 70 % 0.00 in
07:07 48.5 °F 38.8 °F 30.18 in SW 3.5 mph 5.8 mph 69 % 0.00 in
07:12 48.9 °F 38.8 °F 30.18 in SW 3.4 mph 5.8 mph 68 % 0.00 in
07:17 49.3 °F 39.2 °F 30.19 in SW 3.6 mph 5.0 mph 68 % 0.00 in
07:22 49.7 °F 39.2 °F 30.18 in SSW 4.0 mph 6.9 mph 67 % 0.00 in
07:27 50.1 °F 39.6 °F 30.18 in SSW 5.5 mph 8.0 mph 67 % 0.00 in
07:32 50.5 °F 39.6 °F 30.18 in SSW 4.5 mph 5.8 mph 66 % 0.00 in
07:37 50.8 °F 39.1 °F 30.18 in SW 5.6 mph 8.1 mph 64 % 0.00 in
07:42 51.1 °F 39.3 °F 30.18 in SSW 4.4 mph 7.0 mph 64 % 0.00 in
07:47 51.4 °F 39.2 °F 30.18 in South 4.3 mph 5.0 mph 63 % 0.00 in
07:52 51.9 °F 39.7 °F 30.18 in SSW 4.1 mph 8.1 mph 63 % 0.00 in
07:57 52.2 °F 39.6 °F 30.19 in SSW 6.1 mph 8.1 mph 62 % 0.00 in
08:02 52.8 °F 39.7 °F 30.18 in SW 2.0 mph 8.0 mph 61 % 0.00 in
08:07 53.4 °F 40.3 °F 30.18 in SW 2.1 mph 5.0 mph 61 % 0.00 in
08:12 54.0 °F 40.0 °F 30.18 in SSW 2.0 mph 8.0 mph 59 % 0.00 in
08:17 54.7 °F 41.0 °F 30.18 in SW 3.0 mph 7.0 mph 60 % 0.00 in
08:22 55.3 °F 40.4 °F 30.18 in SW 6.0 mph 8.0 mph 57 % 0.00 in
08:27 55.9 °F 40.4 °F 30.18 in SW 3.4 mph 9.2 mph 56 % 0.00 in
08:32 56.3 °F 40.8 °F 30.17 in SW 6.0 mph 8.0 mph 56 % 0.00 in
08:37 56.8 °F 41.3 °F 30.18 in SW 2.8 mph 6.9 mph 56 % 0.00 in
08:42 57.2 °F 40.7 °F 30.18 in SW 3.0 mph 8.0 mph 54 % 0.00 in
08:47 57.8 °F 40.8 °F 30.18 in SW 5.0 mph 7.0 mph 53 % 0.00 in
08:52 58.4 °F 41.3 °F 30.18 in SW 3.0 mph 10.0 mph 53 % 0.00 in
08:57 59.0 °F 41.4 °F 30.18 in WSW 4.4 mph 7.0 mph 52 % 0.00 in
09:02 59.5 °F 41.9 °F 30.18 in SW 2.4 mph 3.5 mph 52 % 0.00 in
09:07 60.0 °F 42.3 °F 30.18 in SW 3.4 mph 4.6 mph 52 % 0.00 in
09:12 60.6 °F 42.4 °F 30.18 in SW 3.2 mph 5.0 mph 51 % 0.00 in
09:17 61.2 °F 42.9 °F 30.18 in WSW 2.2 mph 4.6 mph 51 % 0.00 in
09:23 61.7 °F 45.4 °F 30.18 in East 1.5 mph 3.5 mph 55 % 0.00 in
09:28 62.0 °F 45.2 °F 30.18 in ENE 1.2 mph 2.3 mph 54 % 0.00 in
09:33 61.8 °F 45.9 °F 30.18 in ENE 0.1 mph 1.2 mph 56 % 0.00 in
09:38 62.0 °F 45.6 °F 30.18 in ENE 1.2 mph 2.3 mph 55 % 0.00 in
09:43 61.3 °F 44.0 °F 30.18 in NE 1.0 mph 3.5 mph 53 % 0.00 in
09:48 60.8 °F 45.5 °F 30.18 in NE 1.2 mph 2.3 mph 57 % 0.00 in
09:53 60.4 °F 45.1 °F 30.18 in NNE 1.3 mph 2.3 mph 57 % 0.00 in
09:58 60.0 °F 46.5 °F 30.18 in NNE 0.7 mph 3.5 mph 61 % 0.00 in
10:03 59.8 °F 46.7 °F 30.18 in NE 1.5 mph 3.5 mph 62 % 0.00 in
10:08 59.6 °F 44.3 °F 30.18 in ENE 2.8 mph 4.6 mph 57 % 0.00 in
10:13 59.3 °F 44.5 °F 30.18 in ENE 2.4 mph 3.5 mph 58 % 0.00 in
10:18 58.8 °F 44.0 °F 30.18 in ENE 2.6 mph 3.5 mph 58 % 0.00 in
10:23 58.6 °F 43.9 °F 30.17 in NE 1.3 mph 3.5 mph 58 % 0.00 in
10:28 58.2 °F 44.4 °F 30.17 in ENE 3.1 mph 3.5 mph 60 % 0.00 in
10:34 57.6 °F 43.8 °F 30.17 in ENE 1.9 mph 3.5 mph 60 % 0.00 in
10:39 57.4 °F 44.5 °F 30.17 in NE 0.9 mph 2.3 mph 62 % 0.00 in
10:44 57.7 °F 45.6 °F 30.17 in NNE 2.8 mph 3.5 mph 64 % 0.00 in
10:49 58.7 °F 45.7 °F 30.16 in NE 1.1 mph 3.0 mph 62 % 0.00 in
10:54 58.8 °F 44.0 °F 30.17 in NNE 3.5 mph 3.5 mph 58 % 0.00 in
10:59 59.5 °F 43.8 °F 30.16 in ENE 2.3 mph 3.5 mph 56 % 0.00 in
11:04 59.7 °F 45.3 °F 30.16 in NNE 3.5 mph 5.0 mph 59 % 0.00 in
11:09 60.3 °F 44.5 °F 30.16 in ENE 3.1 mph 3.5 mph 56 % 0.00 in
11:14 60.2 °F 43.0 °F 30.16 in ENE 3.7 mph 4.0 mph 53 % 0.00 in
11:19 59.6 °F 43.9 °F 30.15 in NE 1.1 mph 3.5 mph 56 % 0.00 in
11:24 60.1 °F 44.3 °F 30.15 in NNE 1.5 mph 3.5 mph 56 % 0.00 in
11:29 61.3 °F 45.5 °F 30.15 in NNE 2.6 mph 3.5 mph 56 % 0.00 in
11:34 62.5 °F 45.6 °F 30.15 in NNE 3.5 mph 6.9 mph 54 % 0.00 in
11:40 63.6 °F 46.1 °F 30.15 in NE 1.4 mph 3.5 mph 53 % 0.00 in
11:45 63.6 °F 44.6 °F 30.15 in NE 1.2 mph 4.0 mph 50 % 0.00 in
11:49 63.2 °F 42.6 °F 30.15 in ENE 2.6 mph 4.6 mph 47 % 0.00 in
11:55 61.6 °F 42.8 °F 30.15 in ENE 3.9 mph 5.0 mph 50 % 0.00 in
12:00 60.8 °F 43.6 °F 30.15 in ENE 4.5 mph 7.0 mph 53 % 0.00 in
12:01 60.6 °F 43.9 °F 30.15 in ENE 5.8 mph 8.1 mph 54 % 0.00 in
12:06 59.1 °F 43.9 °F 30.15 in ENE 3.1 mph 3.5 mph 57 % 0.00 in
12:11 58.2 °F 44.8 °F 30.15 in ENE 3.7 mph 6.9 mph 61 % 0.00 in
12:15 58.0 °F 45.5 °F 30.15 in ENE 3.5 mph 5.8 mph 63 % 0.00 in
12:20 57.7 °F 45.2 °F 30.15 in ENE 3.3 mph 4.0 mph 63 % 0.00 in
12:25 58.0 °F 45.5 °F 30.15 in NNE 3.8 mph 6.9 mph 63 % 0.00 in
12:30 58.4 °F 46.7 °F 30.15 in NNE 3.5 mph 5.8 mph 65 % 0.00 in
12:35 59.6 °F 47.0 °F 30.14 in NNE 2.6 mph 4.6 mph 63 % 0.00 in
12:40 60.3 °F 47.6 °F 30.14 in ENE 1.8 mph 3.5 mph 63 % 0.00 in
12:45 60.3 °F 46.8 °F 30.14 in ENE 3.7 mph 7.0 mph 61 % 0.00 in
12:50 59.4 °F 46.4 °F 30.14 in NE 2.8 mph 3.5 mph 62 % 0.00 in
12:55 59.0 °F 46.8 °F 30.13 in NE 1.4 mph 3.5 mph 64 % 0.00 in
12:59 58.9 °F 47.2 °F 30.13 in NE 2.3 mph 4.6 mph 65 % 0.00 in
13:04 59.5 °F 47.7 °F 30.13 in NNE 1.5 mph 3.5 mph 65 % 0.00 in
13:09 60.4 °F 48.6 °F 30.12 in NNE 1.1 mph 3.5 mph 65 % 0.00 in
13:14 61.8 °F 48.2 °F 30.11 in WSW 4.2 mph 9.2 mph 61 % 0.00 in
13:19 63.9 °F 47.4 °F 30.11 in SW 3.2 mph 6.9 mph 55 % 0.00 in
13:25 66.2 °F 48.6 °F 30.11 in South 5.3 mph 10.4 mph 53 % 0.00 in
13:30 68.3 °F 48.4 °F 30.11 in SSW 4.4 mph 6.9 mph 49 % 0.00 in
13:35 69.7 °F 48.6 °F 30.11 in WSW 4.1 mph 11.0 mph 47 % 0.00 in
13:40 70.7 °F 48.3 °F 30.11 in SSW 5.0 mph 11.5 mph 45 % 0.00 in
13:45 71.5 °F 49.6 °F 30.11 in SSW 2.9 mph 9.2 mph 46 % 0.00 in
13:50 71.9 °F 48.8 °F 30.11 in South 3.0 mph 6.9 mph 44 % 0.00 in
13:55 72.2 °F 49.1 °F 30.10 in South 1.7 mph 4.6 mph 44 % 0.00 in
14:00 72.5 °F 48.7 °F 30.10 in SSW 4.6 mph 10.4 mph 43 % 0.00 in
14:05 72.8 °F 50.2 °F 30.10 in SSW 2.8 mph 5.8 mph 45 % 0.00 in
14:10 72.8 °F 49.0 °F 30.10 in SSW 2.4 mph 5.0 mph 43 % 0.00 in
14:15 72.6 °F 48.8 °F 30.10 in South 4.4 mph 8.1 mph 43 % 0.00 in
14:20 72.5 °F 50.5 °F 30.10 in South 2.9 mph 5.8 mph 46 % 0.00 in
14:25 72.7 °F 50.7 °F 30.10 in SSW 5.4 mph 8.0 mph 46 % 0.00 in
14:30 72.8 °F 49.6 °F 30.09 in SSW 6.9 mph 11.5 mph 44 % 0.00 in
14:35 73.0 °F 49.8 °F 30.09 in WSW 5.2 mph 7.0 mph 44 % 0.00 in
14:40 73.1 °F 49.9 °F 30.09 in SSW 3.5 mph 5.8 mph 44 % 0.00 in
14:45 73.4 °F 48.9 °F 30.09 in South 4.4 mph 10.4 mph 42 % 0.00 in
14:50 73.6 °F 50.3 °F 30.09 in South 2.7 mph 4.6 mph 44 % 0.00 in
14:56 73.9 °F 49.4 °F 30.09 in SSE 2.9 mph 5.8 mph 42 % 0.00 in
15:01 73.9 °F 50.6 °F 30.09 in South 6.8 mph 12.7 mph 44 % 0.00 in
15:06 73.2 °F 49.4 °F 30.08 in South 5.3 mph 10.4 mph 43 % 0.00 in
15:11 72.6 °F 49.4 °F 30.08 in SSE 5.2 mph 9.0 mph 44 % 0.00 in
15:16 72.5 °F 49.3 °F 30.08 in South 5.7 mph 10.4 mph 44 % 0.00 in
15:21 72.2 °F 49.1 °F 30.08 in SE 4.4 mph 8.0 mph 44 % 0.00 in
15:26 72.1 °F 49.0 °F 30.07 in SSE 4.3 mph 8.1 mph 44 % 0.00 in
15:31 72.2 °F 49.7 °F 30.07 in SSE 3.8 mph 6.0 mph 45 % 0.00 in
15:36 72.5 °F 49.3 °F 30.07 in SSW 3.8 mph 10.4 mph 44 % 0.00 in
15:41 72.9 °F 50.3 °F 30.07 in SSE 4.2 mph 10.4 mph 45 % 0.00 in
15:46 73.2 °F 50.6 °F 30.07 in South 6.2 mph 10.0 mph 45 % 0.00 in
15:51 73.2 °F 49.4 °F 30.07 in SSE 7.7 mph 10.4 mph 43 % 0.00 in
15:56 73.3 °F 48.8 °F 30.07 in SSW 6.5 mph 11.5 mph 42 % 0.00 in
16:01 73.3 °F 48.8 °F 30.07 in South 5.3 mph 10.4 mph 42 % 0.00 in
16:06 73.3 °F 48.8 °F 30.07 in SSW 3.1 mph 5.8 mph 42 % 0.00 in
16:11 73.4 °F 48.3 °F 30.07 in SSW 7.7 mph 16.1 mph 41 % 0.00 in
16:16 73.2 °F 48.7 °F 30.07 in SSW 6.2 mph 10.4 mph 42 % 0.00 in
16:21 73.1 °F 48.6 °F 30.07 in SSW 5.9 mph 12.7 mph 42 % 0.00 in
16:26 73.0 °F 49.2 °F 30.07 in South 2.6 mph 9.2 mph 43 % 0.00 in
16:31 72.9 °F 48.5 °F 30.06 in SSW 6.0 mph 11.5 mph 42 % 0.00 in
16:36 72.7 °F 48.3 °F 30.06 in SSW 6.6 mph 11.5 mph 42 % 0.00 in
16:41 72.5 °F 47.5 °F 30.06 in South 4.8 mph 9.2 mph 41 % 0.00 in
16:47 72.3 °F 48.5 °F 30.06 in South 5.3 mph 9.2 mph 43 % 0.00 in
16:52 72.1 °F 48.4 °F 30.06 in SSW 3.6 mph 9.2 mph 43 % 0.00 in
16:57 72.0 °F 47.6 °F 30.06 in South 4.5 mph 12.7 mph 42 % 0.00 in
17:02 71.7 °F 47.4 °F 30.06 in SSW 4.7 mph 12.7 mph 42 % 0.00 in
17:07 71.5 °F 47.8 °F 30.06 in SSW 4.3 mph 12.0 mph 43 % 0.00 in
17:12 71.3 °F 47.6 °F 30.06 in SSW 7.4 mph 17.0 mph 43 % 0.00 in
17:17 71.0 °F 48.0 °F 30.05 in South 5.0 mph 10.0 mph 44 % 0.00 in
17:22 70.7 °F 47.7 °F 30.06 in South 6.0 mph 12.0 mph 44 % 0.00 in
17:27 70.5 °F 48.1 °F 30.05 in South 7.0 mph 12.0 mph 45 % 0.00 in
17:32 70.2 °F 47.3 °F 30.06 in South 7.0 mph 12.0 mph 44 % 0.00 in
17:37 70.0 °F 47.6 °F 30.06 in SSW 5.0 mph 14.0 mph 45 % 0.00 in
17:42 69.7 °F 47.4 °F 30.06 in SSW 5.0 mph 9.0 mph 45 % 0.00 in
17:47 69.4 °F 47.1 °F 30.06 in SSW 5.0 mph 12.0 mph 45 % 0.00 in
17:52 69.2 °F 47.5 °F 30.05 in SSW 6.0 mph 10.0 mph 46 % 0.00 in
17:57 68.9 °F 47.3 °F 30.05 in SW 5.4 mph 10.4 mph 46 % 0.00 in
18:02 68.5 °F 46.9 °F 30.05 in SSE 5.5 mph 10.4 mph 46 % 0.00 in
18:07 68.3 °F 46.7 °F 30.06 in SW 8.2 mph 12.0 mph 46 % 0.00 in
18:12 67.9 °F 46.3 °F 30.06 in SSW 9.0 mph 13.8 mph 46 % 0.00 in
18:17 67.5 °F 46.6 °F 30.06 in SW 8.9 mph 15.0 mph 47 % 0.00 in
18:22 67.2 °F 46.3 °F 30.06 in SSE 10.5 mph 16.1 mph 47 % 0.00 in
18:27 66.9 °F 46.6 °F 30.06 in South 5.3 mph 11.5 mph 48 % 0.00 in
18:32 66.7 °F 46.4 °F 30.06 in South 8.6 mph 14.0 mph 48 % 0.00 in
18:37 66.4 °F 46.7 °F 30.06 in SSW 7.8 mph 13.8 mph 49 % 0.00 in
18:42 66.2 °F 46.5 °F 30.06 in SSW 7.6 mph 15.0 mph 49 % 0.00 in
18:47 66.1 °F 46.4 °F 30.06 in South 4.2 mph 8.1 mph 49 % 0.00 in
18:53 65.9 °F 46.2 °F 30.06 in South 6.5 mph 11.5 mph 49 % 0.00 in
18:58 65.7 °F 46.0 °F 30.06 in SSW 6.5 mph 9.2 mph 49 % 0.00 in
19:03 65.6 °F 45.9 °F 30.05 in SSE 6.1 mph 10.4 mph 49 % 0.00 in
19:08 65.4 °F 45.7 °F 30.05 in SSW 9.5 mph 13.8 mph 49 % 0.00 in
19:13 65.2 °F 45.5 °F 30.05 in SW 9.4 mph 15.0 mph 49 % 0.00 in
19:18 65.0 °F 45.9 °F 30.05 in SW 8.7 mph 11.5 mph 50 % 0.00 in
19:23 64.7 °F 45.6 °F 30.05 in SSW 6.7 mph 11.5 mph 50 % 0.00 in
19:28 64.5 °F 46.0 °F 30.05 in SSW 8.8 mph 12.0 mph 51 % 0.00 in
19:33 64.2 °F 45.7 °F 30.05 in South 6.9 mph 18.4 mph 51 % 0.00 in
19:38 64.0 °F 45.5 °F 30.05 in South 7.8 mph 12.7 mph 51 % 0.00 in
19:43 63.8 °F 45.8 °F 30.05 in SSW 8.0 mph 17.0 mph 52 % 0.00 in
19:48 63.6 °F 45.6 °F 30.05 in South 9.0 mph 10.4 mph 52 % 0.00 in
19:53 63.5 °F 45.6 °F 30.05 in SSW 7.5 mph 10.4 mph 52 % 0.00 in
19:58 63.3 °F 45.4 °F 30.06 in SSW 7.1 mph 11.5 mph 52 % 0.00 in
20:03 63.2 °F 45.8 °F 30.06 in SSE 5.8 mph 10.4 mph 53 % 0.00 in
20:08 63.1 °F 45.7 °F 30.06 in SSW 5.2 mph 6.9 mph 53 % 0.00 in
20:13 63.0 °F 45.6 °F 30.07 in South 5.1 mph 11.0 mph 53 % 0.00 in
20:18 62.9 °F 46.0 °F 30.06 in South 6.1 mph 12.7 mph 54 % 0.00 in
20:23 62.9 °F 46.0 °F 30.07 in SSW 8.9 mph 10.0 mph 54 % 0.00 in
20:28 62.9 °F 45.5 °F 30.07 in SSW 6.6 mph 11.5 mph 53 % 0.00 in
20:33 62.9 °F 46.0 °F 30.07 in SW 5.3 mph 8.1 mph 54 % 0.00 in
20:38 62.9 °F 46.0 °F 30.07 in SSW 6.0 mph 11.0 mph 54 % 0.00 in
20:43 62.9 °F 46.0 °F 30.07 in SW 6.8 mph 11.5 mph 54 % 0.00 in
20:48 62.8 °F 46.4 °F 30.07 in SSE 7.7 mph 11.5 mph 55 % 0.00 in
20:53 62.7 °F 46.3 °F 30.07 in South 7.2 mph 10.4 mph 55 % 0.00 in
20:58 62.7 °F 46.3 °F 30.07 in SSW 6.8 mph 11.5 mph 55 % 0.00 in
21:03 62.6 °F 46.2 °F 30.08 in South 7.1 mph 10.4 mph 55 % 0.00 in
21:08 62.5 °F 46.6 °F 30.08 in South 6.0 mph 12.0 mph 56 % 0.00 in
21:13 62.4 °F 46.5 °F 30.08 in South 6.9 mph 11.5 mph 56 % 0.00 in
21:18 62.2 °F 46.8 °F 30.08 in SSW 5.2 mph 9.0 mph 57 % 0.00 in
21:24 61.9 °F 47.0 °F 30.08 in SSW 5.9 mph 11.5 mph 58 % 0.00 in
21:29 61.7 °F 46.8 °F 30.09 in South 3.8 mph 5.8 mph 58 % 0.00 in
21:34 61.4 °F 46.9 °F 30.09 in SW 5.9 mph 9.2 mph 59 % 0.00 in
21:39 61.3 °F 47.3 °F 30.09 in South 4.4 mph 6.9 mph 60 % 0.00 in
21:44 61.1 °F 47.1 °F 30.09 in SSW 4.8 mph 6.9 mph 60 % 0.00 in
21:49 61.0 °F 47.0 °F 30.09 in SSW 5.5 mph 11.0 mph 60 % 0.00 in
21:54 60.9 °F 47.4 °F 30.09 in SSW 5.1 mph 8.1 mph 61 % 0.00 in
21:59 60.8 °F 47.3 °F 30.09 in SSW 4.6 mph 5.8 mph 61 % 0.00 in
22:04 60.8 °F 47.3 °F 30.09 in SSW 5.8 mph 9.2 mph 61 % 0.00 in
22:09 60.7 °F 47.2 °F 30.09 in South 4.6 mph 9.2 mph 61 % 0.00 in
22:14 60.7 °F 47.2 °F 30.09 in SSW 4.4 mph 9.2 mph 61 % 0.00 in
22:19 60.6 °F 47.5 °F 30.09 in South 5.3 mph 8.1 mph 62 % 0.00 in
22:24 60.5 °F 47.4 °F 30.09 in South 6.3 mph 10.4 mph 62 % 0.00 in
22:29 60.4 °F 47.3 °F 30.09 in SSW 7.5 mph 11.5 mph 62 % 0.00 in
22:34 60.3 °F 47.2 °F 30.09 in South 5.2 mph 11.5 mph 62 % 0.00 in
22:39 60.2 °F 47.1 °F 30.09 in SSW 6.6 mph 11.5 mph 62 % 0.00 in
22:44 60.1 °F 47.5 °F 30.09 in SW 6.0 mph 10.4 mph 63 % 0.00 in
22:49 59.9 °F 47.3 °F 30.09 in SSW 4.1 mph 5.8 mph 63 % 0.00 in
22:54 59.8 °F 47.2 °F 30.09 in South 5.3 mph 8.1 mph 63 % 0.00 in
23:00 59.5 °F 47.3 °F 30.09 in SW 6.3 mph 12.0 mph 64 % 0.00 in
23:05 59.3 °F 47.1 °F 30.09 in SSW 4.7 mph 11.5 mph 64 % 0.00 in
23:10 59.2 °F 47.4 °F 30.09 in SW 5.0 mph 8.1 mph 65 % 0.00 in
23:15 59.0 °F 47.2 °F 30.09 in SW 4.7 mph 10.0 mph 65 % 0.00 in
23:20 58.9 °F 47.2 °F 30.09 in SW 6.7 mph 10.4 mph 65 % 0.00 in
23:25 58.7 °F 47.4 °F 30.10 in South 6.7 mph 9.2 mph 66 % 0.00 in
23:30 58.6 °F 47.3 °F 30.09 in SSW 4.5 mph 8.0 mph 66 % 0.00 in
23:35 58.5 °F 47.2 °F 30.09 in South 4.9 mph 8.1 mph 66 % 0.00 in
23:40 58.4 °F 47.5 °F 30.10 in SW 5.7 mph 8.1 mph 67 % 0.00 in
23:45 58.2 °F 47.3 °F 30.09 in SSW 4.7 mph 8.1 mph 67 % 0.00 in
23:50 58.1 °F 47.2 °F 30.09 in SSW 6.8 mph 11.5 mph 67 % 0.00 in
23:55 58.1 °F 47.2 °F 30.09 in SW 5.5 mph 8.1 mph 67 % 0.00 in
Crab Meadow Weather
Compliments of Weather Underground - 3 mb

Script developed by  Jim McMurry - jmcmurry@mwt.net Adapted for the template by  Wim van der Kuil - Leuven-Template.eu

Recycling: Americans throw away 25,000,000,000 Styrofoam coffee cups every year.